DuBois Regional Airport
KDUJ : now visible

Airfield :











YOU CAN JOIN US ON...

 
LOGIN :

Register | Disclaimer

   EN    FR    IT 

 









Legend :    VFR   Marginal VFR   IFR   Intensive IFR   Very Intensive IFR
Visi :
Ceiling :
>= 8 km
>= 3000ft
5 to 8 km
1000 to 3000 ft
1500m to 5 km
500 to 1000 ft
800 to 1500m
200 to 500 ft
< 800m
< 200 ft
Symbols :   Thunderstorms  Fog  Heavy snow  Heavy precipitations  Wind > 20 kt







- Airport Elevation : 1817 ft
- IATA code : DUJ


KDUJ - DuBois Regional

CURRENT METAR :
  • 211353Z AUTO 27006KT 4SM -RA BR BKN005 BKN015 OVC043 08/07 A2997 RMK AO2 RAE20B53 CIG 003V008 SLP152 P0002 T00830072 $

EXPIRED METARs :
  • 211331Z AUTO 26006KT 3SM BR BKN005 OVC022 08/07 A2996 RMK AO2 RAE20 CIG 003V008 P0002 T00780067 $
  • 211307Z AUTO 27006KT 4SM -RA BR BKN004 BKN012 OVC023 08/07 A2995 RMK AO2 CIG 002V007 P0001 T00780067 $
  • 211253Z AUTO 27008KT 2SM -RA BR OVC004 08/07 A2994 RMK AO2 CIG 002V009 SLP143 P0010 T00780067 $
  • 211249Z AUTO 26005KT 2SM -RA BR BKN005 OVC013 08/07 A2994 RMK AO2 P0010 $
  • 211221Z AUTO 31006KT 1 3/4SM -RA BR OVC004 08/07 A2993 RMK AO2 P0006 T00830072 $
  • 211153Z AUTO 23004KT 2 1/2SM -RA BR OVC004 08/07 A2991 RMK AO2 RAB1054E10B19 CIG 002V008 SLP133 P0007 60007 70121 T00780072 10078 20067 51021 $

TAF KDUJ
Valid from the 21 at 15:00 until the 22 at 12:00 UTC


211448Z 2115/2212 27006KT 4SM BR BKN005
FM211800 29007KT P6SM BKN015
FM212300 27007KT P6SM BKN025
KZOB FIR / North America



MET'MAP, your aeronautical weather chart ! - Copyright ORBIFLY December 2007 - Disclaimer

ORBIFLY MET'MAP TEAM :

Programming & Development : Alexandra Zaïnal
Concept & Development : Baudouin d'Aumeries
Co-Development & Prog : Marc-Olivier Méhu
Technical & hardware support : Manuel Goepfert

Contact : metmap@orbifly.com




SOURCES & CREDITS :

   NOAA       Earth
Advisory